Time;durP1;ratioP1;P1;durP2;ratioP2;P2;SDS_P1;SDS_P2;PMS_P1;PMS_P2;Temp;Humidity;BMP_temperature;BMP_pressure;BME280_temperature;BME280_humidity;BME280_pressure;Samples;Min_cycle;Max_cycle;Signal;HPM_P1;HPM_P2
2023/04/14 00:01:58;;;;;;;6.33;5.77;;;;;;;;;;5061091;28;20205;-73
2023/04/14 00:04:26;;;;;;;6.20;4.87;;;;;;;;;;5058099;28;20233;-74
2023/04/14 00:06:57;;;;;;;4.93;4.43;;;;;;;;;;5052327;28;20205;-75
2023/04/14 00:09:27;;;;;;;4.80;4.30;;;;;;;;;;5051580;28;20202;-73
2023/04/14 00:11:56;;;;;;;3.93;3.53;;;;;;;;;;5052796;28;20208;-73
2023/04/14 00:14:23;;;;;;;5.03;3.10;;;;;;;;;;5067493;28;20228;-74
2023/04/14 00:16:50;;;;;;;5.33;3.70;;;;;;;;;;5068154;28;20206;-74
2023/04/14 00:19:18;;;;;;;8.93;5.10;;;;;;;;;;5065674;28;20225;-74
2023/04/14 00:21:45;;;;;;;5.33;4.73;;;;;;;;;;5066786;28;20201;-74
2023/04/14 00:24:13;;;;;;;6.07;4.70;;;;;;;;;;5059265;28;20226;-74
2023/04/14 00:26:40;;;;;;;6.23;4.57;;;;;;;;;;5060594;28;20913;-74
2023/04/14 00:29:08;;;;;;;7.77;3.47;;;;;;;;;;5065468;28;20897;-74
2023/04/14 00:31:36;;;;;;;6.30;3.30;;;;;;;;;;5068419;28;20205;-74
2023/04/14 00:34:04;;;;;;;9.93;3.47;;;;;;;;;;5066702;28;20201;-74
2023/04/14 00:36:31;;;;;;;11.47;6.07;;;;;;;;;;5071978;28;20197;-73
2023/04/14 00:38:59;;;;;;;16.87;8.00;;;;;;;;;;5070855;28;20221;-74
2023/04/14 00:41:26;;;;;;;20.20;10.07;;;;;;;;;;5071480;28;20227;-73
2023/04/14 00:43:54;;;;;;;9.00;4.30;;;;;;;;;;5071505;28;20212;-72
2023/04/14 00:46:21;;;;;;;3.47;3.17;;;;;;;;;;5071380;28;20197;-72
2023/04/14 00:48:49;;;;;;;5.60;3.00;;;;;;;;;;5067853;28;20217;-73
2023/04/14 00:51:16;;;;;;;4.43;2.77;;;;;;;;;;5067741;28;20647;-72
2023/04/14 00:53:44;;;;;;;6.70;3.40;;;;;;;;;;5068788;28;20198;-72
2023/04/14 00:56:15;;;;;;;5.87;2.90;;;;;;;;;;5064034;28;20820;-72
2023/04/14 00:58:42;;;;;;;4.93;3.20;;;;;;;;;;5067304;28;20313;-72
2023/04/14 01:01:10;;;;;;;7.40;2.97;;;;;;;;;;5067092;28;20209;-74
2023/04/14 01:03:37;;;;;;;4.93;2.87;;;;;;;;;;5063846;28;20690;-73
2023/04/14 01:06:05;;;;;;;5.67;3.63;;;;;;;;;;5053512;28;20261;-73
2023/04/14 01:08:32;;;;;;;13.63;9.10;;;;;;;;;;5038059;28;20221;-75
2023/04/14 01:11:06;;;;;;;11.43;8.83;;;;;;;;;;5052261;28;20255;-74
2023/04/14 01:13:42;;;;;;;10.40;5.93;;;;;;;;;;5047966;28;20787;-75
2023/04/14 01:16:17;;;;;;;15.70;9.30;;;;;;;;;;5044212;28;23751;-74
2023/04/14 01:18:49;;;;;;;13.27;8.20;;;;;;;;;;5036364;28;20230;-75
2023/04/14 01:21:31;;;;;;;33.63;20.50;;;;;;;;;;5031665;28;20295;-74
2023/04/14 01:24:21;;;;;;;10.20;5.03;;;;;;;;;;5033170;28;20209;-75
2023/04/14 01:26:57;;;;;;;10.73;4.60;;;;;;;;;;5041373;28;20244;-74
2023/04/14 01:29:30;;;;;;;4.30;2.63;;;;;;;;;;5027777;28;20668;-73
2023/04/14 01:32:05;;;;;;;3.60;2.80;;;;;;;;;;5038118;28;20298;-73
2023/04/14 01:34:41;;;;;;;6.87;3.20;;;;;;;;;;5036829;28;20201;-73
2023/04/14 01:37:15;;;;;;;9.20;3.30;;;;;;;;;;5039278;28;20264;-75
2023/04/14 01:39:45;;;;;;;6.70;2.83;;;;;;;;;;5038583;28;20202;-75
2023/04/14 01:42:17;;;;;;;6.60;2.53;;;;;;;;;;5023960;28;20206;-75
2023/04/14 01:44:46;;;;;;;9.07;2.83;;;;;;;;;;5023260;28;20222;-75
2023/04/14 01:47:15;;;;;;;7.00;3.40;;;;;;;;;;5039368;28;20209;-75
2023/04/14 01:49:44;;;;;;;6.77;2.67;;;;;;;;;;5032860;28;20205;-74
2023/04/14 01:52:13;;;;;;;7.90;2.60;;;;;;;;;;5029793;28;20233;-75
2023/04/14 01:54:42;;;;;;;6.47;3.20;;;;;;;;;;5038620;28;20209;-75
2023/04/14 01:57:10;;;;;;;7.67;3.17;;;;;;;;;;5037987;28;20205;-74
2023/04/14 01:59:39;;;;;;;6.13;2.83;;;;;;;;;;5035263;28;20199;-75
2023/04/14 02:02:08;;;;;;;10.10;2.83;;;;;;;;;;5030551;28;20323;-75
2023/04/14 02:04:37;;;;;;;6.03;2.87;;;;;;;;;;5037487;28;21515;-73
2023/04/14 02:07:05;;;;;;;10.53;5.30;;;;;;;;;;5025799;28;20344;-74
2023/04/14 02:09:32;;;;;;;42.53;18.87;;;;;;;;;;5026858;28;20205;-75
2023/04/14 02:12:00;;;;;;;8.03;4.10;;;;;;;;;;5018945;28;20216;-73
2023/04/14 02:14:28;;;;;;;8.07;2.80;;;;;;;;;;5028776;28;20269;-73
2023/04/14 02:16:57;;;;;;;4.83;2.70;;;;;;;;;;5026115;28;20335;-75
2023/04/14 02:19:25;;;;;;;4.93;2.57;;;;;;;;;;5027411;28;20213;-74
2023/04/14 02:21:55;;;;;;;6.30;2.60;;;;;;;;;;5032074;28;20294;-72
2023/04/14 02:24:22;;;;;;;7.97;2.60;;;;;;;;;;5051510;28;20210;-75
2023/04/14 02:27:13;;;;;;;7.47;2.53;;;;;;;;;;5054762;28;20201;-73
2023/04/14 02:29:42;;;;;;;8.10;2.63;;;;;;;;;;5023425;28;20633;-74
2023/04/14 02:32:14;;;;;;;4.40;2.30;;;;;;;;;;5052991;28;20651;-74
2023/04/14 02:34:50;;;;;;;8.97;4.37;;;;;;;;;;5053234;28;20244;-75
2023/04/14 02:37:26;;;;;;;9.37;3.43;;;;;;;;;;5048609;28;20241;-75
2023/04/14 02:39:57;;;;;;;10.30;3.97;;;;;;;;;;5043828;28;20671;-74
2023/04/14 02:42:26;;;;;;;9.57;4.20;;;;;;;;;;5056036;28;20750;-75
2023/04/14 02:44:59;;;;;;;12.17;3.83;;;;;;;;;;5049129;28;20246;-75
2023/04/14 02:47:29;;;;;;;9.80;3.93;;;;;;;;;;5053481;28;20242;-75
2023/04/14 02:49:58;;;;;;;9.33;3.37;;;;;;;;;;5052659;28;20609;-73
2023/04/14 02:52:28;;;;;;;7.20;3.30;;;;;;;;;;5044587;28;20271;-73
2023/04/14 02:54:55;;;;;;;6.67;2.63;;;;;;;;;;5056274;28;20667;-75
2023/04/14 02:57:25;;;;;;;5.23;2.50;;;;;;;;;;5057461;28;20320;-73
2023/04/14 02:59:52;;;;;;;7.33;2.40;;;;;;;;;;5053616;28;20278;-75
2023/04/14 03:02:20;;;;;;;3.87;2.40;;;;;;;;;;5045876;28;20289;-74
2023/04/14 03:04:47;;;;;;;7.40;2.73;;;;;;;;;;5051038;28;20225;-75
2023/04/14 03:07:15;;;;;;;5.70;2.77;;;;;;;;;;5058091;28;20202;-74
2023/04/14 03:09:43;;;;;;;12.27;4.47;;;;;;;;;;5048251;28;20208;-74
2023/04/14 03:12:12;;;;;;;6.43;3.57;;;;;;;;;;5051551;28;20201;-75
2023/04/14 03:14:40;;;;;;;14.67;5.20;;;;;;;;;;5056211;28;20207;-75
2023/04/14 03:17:10;;;;;;;11.53;5.93;;;;;;;;;;5043304;28;20225;-75
2023/04/14 03:19:39;;;;;;;14.67;6.67;;;;;;;;;;5048390;28;20221;-73
2023/04/14 03:22:10;;;;;;;6.13;3.67;;;;;;;;;;5057543;28;20229;-73
2023/04/14 03:24:38;;;;;;;8.70;3.50;;;;;;;;;;5055585;28;20198;-74
2023/04/14 03:27:11;;;;;;;14.57;4.70;;;;;;;;;;5046564;28;20201;-75
2023/04/14 03:29:39;;;;;;;9.37;4.27;;;;;;;;;;5054790;28;20668;-74
2023/04/14 03:32:07;;;;;;;7.97;3.30;;;;;;;;;;5049799;28;20221;-75
2023/04/14 03:34:37;;;;;;;7.33;3.13;;;;;;;;;;5042498;28;20690;-75
2023/04/14 03:37:05;;;;;;;9.80;3.63;;;;;;;;;;5050425;28;20281;-74
2023/04/14 03:39:33;;;;;;;6.83;3.13;;;;;;;;;;5049605;28;20201;-75
2023/04/14 03:42:02;;;;;;;7.93;2.97;;;;;;;;;;5049192;28;20271;-75
2023/04/14 03:44:34;;;;;;;6.47;3.20;;;;;;;;;;5049186;28;20645;-74
2023/04/14 03:47:02;;;;;;;3.53;2.40;;;;;;;;;;5048275;28;20202;-73
2023/04/14 03:49:32;;;;;;;6.77;2.70;;;;;;;;;;5046529;28;21063;-75
2023/04/14 03:52:01;;;;;;;7.30;2.50;;;;;;;;;;5046114;28;20283;-75
2023/04/14 03:54:31;;;;;;;9.77;2.90;;;;;;;;;;5068910;28;20206;-75
2023/04/14 03:56:59;;;;;;;8.43;3.07;;;;;;;;;;5044440;28;20625;-75
2023/04/14 03:59:27;;;;;;;8.70;3.27;;;;;;;;;;5050831;28;20265;-74
2023/04/14 04:01:54;;;;;;;8.80;3.53;;;;;;;;;;5050557;28;20210;-75
2023/04/14 04:04:23;;;;;;;12.33;5.27;;;;;;;;;;5053561;28;20233;-75
2023/04/14 04:06:50;;;;;;;8.90;4.43;;;;;;;;;;5053880;28;20287;-75
2023/04/14 04:09:19;;;;;;;8.17;3.17;;;;;;;;;;5047474;28;20256;-75
2023/04/14 04:11:47;;;;;;;8.60;3.10;;;;;;;;;;5052390;28;20198;-75
2023/04/14 04:14:15;;;;;;;7.20;3.20;;;;;;;;;;5044971;28;20229;-76
2023/04/14 04:16:43;;;;;;;8.53;3.30;;;;;;;;;;5043618;28;20220;-75
2023/04/14 04:19:12;;;;;;;10.17;3.00;;;;;;;;;;5035232;28;20245;-75
2023/04/14 04:21:40;;;;;;;6.47;3.60;;;;;;;;;;5030484;28;20206;-76
2023/04/14 04:24:07;;;;;;;9.63;2.97;;;;;;;;;;5031677;28;20646;-75
2023/04/14 04:26:35;;;;;;;10.67;2.83;;;;;;;;;;5041111;28;20225;-74
2023/04/14 04:29:03;;;;;;;6.80;2.93;;;;;;;;;;5043776;28;20686;-75
2023/04/14 04:31:32;;;;;;;9.80;2.73;;;;;;;;;;5041389;28;20206;-75
2023/04/14 04:34:01;;;;;;;12.67;3.50;;;;;;;;;;5039017;28;20301;-75
2023/04/14 04:36:30;;;;;;;9.67;2.90;;;;;;;;;;5052522;28;20693;-75
2023/04/14 04:38:58;;;;;;;5.77;2.93;;;;;;;;;;5040304;28;20933;-73
2023/04/14 04:41:28;;;;;;;9.77;2.67;;;;;;;;;;5046795;28;20213;-75
2023/04/14 04:43:55;;;;;;;17.40;9.20;;;;;;;;;;5053425;28;20205;-75
2023/04/14 04:46:37;;;;;;;7.17;2.97;;;;;;;;;;5042653;28;20232;-75
2023/04/14 04:49:04;;;;;;;9.17;2.60;;;;;;;;;;5034325;28;20220;-74
2023/04/14 04:51:32;;;;;;;9.53;2.83;;;;;;;;;;5039827;28;20293;-75
2023/04/14 04:53:59;;;;;;;6.03;2.30;;;;;;;;;;5043356;28;20202;-77
2023/04/14 04:56:27;;;;;;;10.17;2.77;;;;;;;;;;5046798;28;20202;-76
2023/04/14 04:58:54;;;;;;;6.53;2.83;;;;;;;;;;5034694;28;20263;-76
2023/04/14 05:01:21;;;;;;;6.13;2.67;;;;;;;;;;5036032;28;20324;-76
2023/04/14 05:03:49;;;;;;;9.40;2.93;;;;;;;;;;5047298;28;20629;-75
2023/04/14 05:06:16;;;;;;;10.10;2.67;;;;;;;;;;5039811;28;20230;-74
2023/04/14 05:08:44;;;;;;;5.30;2.67;;;;;;;;;;5045882;28;20578;-74
2023/04/14 05:11:11;;;;;;;8.90;3.93;;;;;;;;;;5045745;28;20207;-75
2023/04/14 05:13:38;;;;;;;5.70;3.30;;;;;;;;;;5042684;28;20272;-75
2023/04/14 05:16:06;;;;;;;10.00;4.70;;;;;;;;;;5046539;28;20201;-75
2023/04/14 05:18:35;;;;;;;8.63;3.13;;;;;;;;;;5056695;28;20224;-75
2023/04/14 05:21:06;;;;;;;6.13;2.30;;;;;;;;;;5052938;28;20703;-75
2023/04/14 05:23:34;;;;;;;6.20;2.67;;;;;;;;;;5059935;28;20267;-76
2023/04/14 05:26:02;;;;;;;8.50;2.20;;;;;;;;;;5050341;28;20387;-76
2023/04/14 05:28:49;;;;;;;4.47;2.30;;;;;;;;;;5040660;28;20225;-75
2023/04/14 05:31:17;;;;;;;9.00;2.57;;;;;;;;;;5046476;28;20292;-75
2023/04/14 05:33:44;;;;;;;6.30;2.23;;;;;;;;;;5051604;28;20263;-75
2023/04/14 05:36:12;;;;;;;6.90;2.10;;;;;;;;;;5051852;28;20210;-75
2023/04/14 05:38:39;;;;;;;4.50;2.10;;;;;;;;;;5045668;28;20234;-75
2023/04/14 05:41:06;;;;;;;5.23;2.30;;;;;;;;;;5048070;28;20263;-75
2023/04/14 05:43:34;;;;;;;5.50;2.47;;;;;;;;;;5050887;28;20214;-75
2023/04/14 05:46:01;;;;;;;5.60;2.07;;;;;;;;;;5045146;28;20225;-75
2023/04/14 05:48:29;;;;;;;5.53;2.90;;;;;;;;;;5044575;28;20221;-75
2023/04/14 05:50:57;;;;;;;6.37;3.27;;;;;;;;;;5050981;28;20216;-76
2023/04/14 05:53:25;;;;;;;9.87;3.93;;;;;;;;;;5048550;28;20293;-75
2023/04/14 05:55:52;;;;;;;7.40;2.50;;;;;;;;;;5048007;28;20296;-74
2023/04/14 05:58:19;;;;;;;6.67;3.27;;;;;;;;;;5046656;28;20726;-75
2023/04/14 06:00:46;;;;;;;8.60;4.77;;;;;;;;;;5049671;28;20208;-75
2023/04/14 06:03:15;;;;;;;6.43;3.00;;;;;;;;;;5051105;28;20205;-75
2023/04/14 06:05:43;;;;;;;4.00;2.33;;;;;;;;;;5045844;28;20225;-73
2023/04/14 06:08:10;;;;;;;7.03;2.30;;;;;;;;;;5050481;28;20393;-74
2023/04/14 06:10:37;;;;;;;7.60;2.30;;;;;;;;;;5050305;28;20237;-75
2023/04/14 06:13:04;;;;;;;6.27;2.23;;;;;;;;;;5056185;28;20297;-75
2023/04/14 06:15:32;;;;;;;7.23;2.37;;;;;;;;;;5048446;28;20205;-74
2023/04/14 06:17:59;;;;;;;8.37;2.80;;;;;;;;;;5049779;28;20316;-74
2023/04/14 06:20:26;;;;;;;5.20;3.17;;;;;;;;;;5053873;28;20633;-75
2023/04/14 06:22:56;;;;;;;7.87;3.07;;;;;;;;;;5046208;28;20746;-74
2023/04/14 06:25:23;;;;;;;10.87;3.63;;;;;;;;;;5050284;28;20288;-74
2023/04/14 06:27:51;;;;;;;9.67;3.40;;;;;;;;;;5055017;28;20230;-74
2023/04/14 06:30:18;;;;;;;2.90;2.40;;;;;;;;;;5057444;28;20728;-74
2023/04/14 06:32:47;;;;;;;5.20;2.03;;;;;;;;;;5050500;28;20293;-74
2023/04/14 06:35:14;;;;;;;2.90;1.80;;;;;;;;;;5058870;28;21086;-74
2023/04/14 06:37:59;;;;;;;5.80;1.97;;;;;;;;;;5056702;28;20736;-74
2023/04/14 06:40:26;;;;;;;3.93;1.97;;;;;;;;;;5046572;28;20664;-74
2023/04/14 06:42:55;;;;;;;6.50;2.23;;;;;;;;;;5051981;28;20202;-73
2023/04/14 06:45:22;;;;;;;7.90;2.17;;;;;;;;;;5047148;28;20580;-75
2023/04/14 06:47:49;;;;;;;5.97;1.90;;;;;;;;;;5053596;28;20699;-75
2023/04/14 06:50:17;;;;;;;5.23;2.03;;;;;;;;;;5041679;28;20652;-75
2023/04/14 06:52:45;;;;;;;6.23;2.20;;;;;;;;;;5031196;28;20206;-74
2023/04/14 06:55:12;;;;;;;4.33;2.10;;;;;;;;;;5046076;28;20218;-73
2023/04/14 06:57:40;;;;;;;5.77;2.00;;;;;;;;;;5039419;28;20387;-75
2023/04/14 07:00:09;;;;;;;3.53;2.50;;;;;;;;;;5037754;28;20217;-74
2023/04/14 07:02:37;;;;;;;6.90;2.30;;;;;;;;;;5030076;28;20220;-74
2023/04/14 07:05:04;;;;;;;12.60;6.00;;;;;;;;;;5035141;28;20671;-75
2023/04/14 07:07:36;;;;;;;5.63;2.37;;;;;;;;;;5040470;28;20348;-73
2023/04/14 07:10:03;;;;;;;3.37;1.60;;;;;;;;;;5030268;28;20520;-75
2023/04/14 07:12:31;;;;;;;3.30;1.60;;;;;;;;;;5024703;28;20205;-75
2023/04/14 07:14:58;;;;;;;4.27;1.60;;;;;;;;;;5030069;28;20765;-73
2023/04/14 07:17:25;;;;;;;4.20;1.50;;;;;;;;;;5027070;28;20367;-75
2023/04/14 07:19:52;;;;;;;3.50;2.00;;;;;;;;;;5026534;28;20399;-75
2023/04/14 07:22:20;;;;;;;6.03;1.77;;;;;;;;;;5026426;28;20378;-74
2023/04/14 07:24:47;;;;;;;5.03;1.90;;;;;;;;;;5031311;28;20392;-74
2023/04/14 07:27:15;;;;;;;4.60;1.80;;;;;;;;;;5035247;28;20226;-75
2023/04/14 07:29:42;;;;;;;6.80;3.00;;;;;;;;;;5038348;28;20205;-73
2023/04/14 07:32:11;;;;;;;4.70;2.50;;;;;;;;;;5039832;28;20255;-74
2023/04/14 07:34:42;;;;;;;4.37;2.20;;;;;;;;;;5050400;28;20205;-73
2023/04/14 07:37:10;;;;;;;6.77;2.27;;;;;;;;;;5043021;28;20206;-74
2023/04/14 07:39:40;;;;;;;7.80;3.50;;;;;;;;;;5045119;28;20662;-73
2023/04/14 07:42:08;;;;;;;9.17;2.37;;;;;;;;;;5045748;28;20339;-73
2023/04/14 07:44:35;;;;;;;2.90;1.67;;;;;;;;;;5040136;28;20201;-74
2023/04/14 07:47:03;;;;;;;7.03;1.80;;;;;;;;;;5044444;28;20704;-73
2023/04/14 07:49:31;;;;;;;5.03;1.97;;;;;;;;;;5051523;28;20203;-74
2023/04/14 07:52:00;;;;;;;7.67;1.70;;;;;;;;;;5041001;28;20208;-73
2023/04/14 07:54:30;;;;;;;2.17;1.63;;;;;;;;;;5051586;28;20203;-73
2023/04/14 07:56:58;;;;;;;3.70;1.70;;;;;;;;;;5040547;28;20205;-73
2023/04/14 07:59:25;;;;;;;6.00;1.63;;;;;;;;;;5044031;28;20226;-74
2023/04/14 08:01:52;;;;;;;4.63;1.70;;;;;;;;;;5045253;28;20296;-74
2023/04/14 08:04:20;;;;;;;3.97;2.00;;;;;;;;;;5050460;28;20197;-74
2023/04/14 08:06:48;;;;;;;3.47;1.77;;;;;;;;;;5047582;28;20637;-74
2023/04/14 08:09:16;;;;;;;3.10;1.60;;;;;;;;;;5047577;28;20698;-75
2023/04/14 08:11:43;;;;;;;3.70;1.70;;;;;;;;;;5042619;28;20206;-74
2023/04/14 08:14:11;;;;;;;3.03;1.60;;;;;;;;;;5043676;28;20768;-76
2023/04/14 08:16:40;;;;;;;4.50;2.10;;;;;;;;;;5042311;28;20210;-75
2023/04/14 08:19:08;;;;;;;2.80;1.53;;;;;;;;;;5041958;28;20236;-74
2023/04/14 08:21:35;;;;;;;3.73;1.63;;;;;;;;;;5049553;28;20296;-74
2023/04/14 08:24:02;;;;;;;5.47;1.80;;;;;;;;;;5039525;28;20311;-75
2023/04/14 08:26:30;;;;;;;7.27;1.70;;;;;;;;;;5040068;28;20229;-73
2023/04/14 08:28:57;;;;;;;4.53;1.80;;;;;;;;;;5033458;28;20221;-74
2023/04/14 08:31:25;;;;;;;1.90;1.53;;;;;;;;;;5047199;28;20209;-74
2023/04/14 08:33:52;;;;;;;4.20;1.67;;;;;;;;;;5033131;28;20201;-75
2023/04/14 08:36:20;;;;;;;5.57;1.87;;;;;;;;;;5038504;28;21030;-75
2023/04/14 08:38:47;;;;;;;7.20;2.30;;;;;;;;;;5043378;28;20279;-75
2023/04/14 08:41:18;;;;;;;2.90;1.80;;;;;;;;;;5042814;28;20605;-75
2023/04/14 08:43:45;;;;;;;9.40;2.70;;;;;;;;;;5043805;28;20228;-74
2023/04/14 08:46:12;;;;;;;3.10;1.50;;;;;;;;;;5040179;28;20741;-75
2023/04/14 08:48:40;;;;;;;3.17;1.70;;;;;;;;;;5039869;28;20222;-75
2023/04/14 08:51:27;;;;;;;3.03;1.47;;;;;;;;;;5041322;28;20201;-75
2023/04/14 08:53:55;;;;;;;5.80;1.77;;;;;;;;;;5044276;28;20208;-75
2023/04/14 08:56:24;;;;;;;3.70;1.70;;;;;;;;;;5037114;28;20229;-75
2023/04/14 08:58:52;;;;;;;3.70;1.50;;;;;;;;;;5035580;28;20260;-75
2023/04/14 09:01:19;;;;;;;6.80;1.60;;;;;;;;;;5032741;28;20255;-75
2023/04/14 09:03:47;;;;;;;7.33;1.80;;;;;;;;;;5020692;28;20205;-75
2023/04/14 09:06:17;;;;;;;4.17;1.70;;;;;;;;;;5037060;28;20221;-75
2023/04/14 09:08:44;;;;;;;6.87;1.70;;;;;;;;;;5027825;28;20408;-75
2023/04/14 09:11:12;;;;;;;6.00;1.90;;;;;;;;;;5033206;28;20206;-75
2023/04/14 09:13:40;;;;;;;6.60;2.30;;;;;;;;;;5041626;28;20205;-75
2023/04/14 09:16:07;;;;;;;5.57;1.77;;;;;;;;;;5023506;28;20224;-75
2023/04/14 09:18:35;;;;;;;4.30;1.60;;;;;;;;;;5032065;28;20244;-74
2023/04/14 09:21:06;;;;;;;3.13;1.70;;;;;;;;;;5038556;28;20202;-75
2023/04/14 09:23:54;;;;;;;4.87;2.00;;;;;;;;;;5030290;28;20228;-75
2023/04/14 09:26:21;;;;;;;8.57;2.40;;;;;;;;;;5029383;28;20210;-75
2023/04/14 09:28:48;;;;;;;5.33;2.20;;;;;;;;;;5032117;28;20917;-75
2023/04/14 09:31:16;;;;;;;9.17;2.10;;;;;;;;;;5044502;28;20297;-75
2023/04/14 09:33:44;;;;;;;5.10;2.10;;;;;;;;;;5035633;28;20652;-75
2023/04/14 09:36:22;;;;;;;8.80;2.10;;;;;;;;;;5030656;28;20210;-75
2023/04/14 09:38:50;;;;;;;6.50;2.13;;;;;;;;;;5019988;28;20374;-75
2023/04/14 09:41:21;;;;;;;5.00;2.10;;;;;;;;;;5030005;28;20694;-75
2023/04/14 09:43:49;;;;;;;5.67;2.23;;;;;;;;;;5034307;28;20578;-75
2023/04/14 09:46:16;;;;;;;7.67;1.97;;;;;;;;;;5022072;28;20209;-75
2023/04/14 09:48:51;;;;;;;3.63;2.00;;;;;;;;;;5029464;28;20705;-75
2023/04/14 09:51:23;;;;;;;4.77;2.00;;;;;;;;;;5042943;28;20194;-74
2023/04/14 09:53:52;;;;;;;4.53;1.87;;;;;;;;;;5043952;28;20201;-74
2023/04/14 09:56:20;;;;;;;7.40;2.30;;;;;;;;;;5056370;28;20205;-75
2023/04/14 09:58:49;;;;;;;5.60;2.00;;;;;;;;;;5069290;28;20639;-76
2023/04/14 10:01:20;;;;;;;4.83;1.60;;;;;;;;;;5068031;28;20205;-74
2023/04/14 10:03:48;;;;;;;6.43;2.93;;;;;;;;;;5069592;28;20209;-75
2023/04/14 10:06:17;;;;;;;5.70;1.83;;;;;;;;;;5067904;28;20547;-75
2023/04/14 10:08:50;;;;;;;6.57;2.07;;;;;;;;;;5069437;28;20226;-75
2023/04/14 10:11:25;;;;;;;5.73;1.80;;;;;;;;;;5070507;28;20201;-73
2023/04/14 10:13:55;;;;;;;4.87;2.30;;;;;;;;;;5071028;28;20564;-73
2023/04/14 10:16:23;;;;;;;4.17;1.63;;;;;;;;;;5068589;28;20655;-74
2023/04/14 10:18:51;;;;;;;3.87;1.67;;;;;;;;;;5067567;28;20222;-75
2023/04/14 10:21:21;;;;;;;2.60;1.70;;;;;;;;;;5069216;28;20209;-75
2023/04/14 10:23:48;;;;;;;4.33;1.77;;;;;;;;;;5069079;28;20221;-75
2023/04/14 10:26:16;;;;;;;3.03;1.70;;;;;;;;;;5069370;28;20296;-74
2023/04/14 10:28:44;;;;;;;6.47;1.90;;;;;;;;;;5069709;28;20661;-75
2023/04/14 10:31:14;;;;;;;4.37;2.00;;;;;;;;;;5069029;28;20659;-75
2023/04/14 10:33:42;;;;;;;3.73;1.90;;;;;;;;;;5069730;28;20233;-75
2023/04/14 10:36:09;;;;;;;3.57;1.87;;;;;;;;;;5070139;28;20209;-75
2023/04/14 10:38:41;;;;;;;2.53;1.47;;;;;;;;;;5069752;28;20353;-75
2023/04/14 10:41:09;;;;;;;4.80;1.77;;;;;;;;;;5069996;28;20211;-75
2023/04/14 10:43:37;;;;;;;4.20;1.93;;;;;;;;;;5069389;28;20206;-74
2023/04/14 10:46:04;;;;;;;6.70;1.93;;;;;;;;;;5069430;28;20279;-75
2023/04/14 10:48:35;;;;;;;4.13;1.73;;;;;;;;;;5067712;28;20320;-75
2023/04/14 10:51:04;;;;;;;2.57;1.50;;;;;;;;;;5068269;28;20202;-75
2023/04/14 10:53:36;;;;;;;3.97;1.83;;;;;;;;;;5069208;28;20722;-75
2023/04/14 10:56:05;;;;;;;5.43;1.73;;;;;;;;;;5069266;28;20296;-75
2023/04/14 10:58:33;;;;;;;2.53;1.70;;;;;;;;;;5069274;28;20287;-75
2023/04/14 11:01:20;;;;;;;3.80;1.70;;;;;;;;;;5068024;28;20263;-74
2023/04/14 11:03:48;;;;;;;3.93;1.73;;;;;;;;;;5068021;28;20201;-73
2023/04/14 11:06:35;;;;;;;4.57;1.40;;;;;;;;;;5067734;28;20205;-76
2023/04/14 11:09:21;;;;;;;2.90;1.40;;;;;;;;;;5068203;28;20260;-75
2023/04/14 11:11:49;;;;;;;4.53;1.70;;;;;;;;;;5068680;28;20185;-75
2023/04/14 11:14:16;;;;;;;1.93;1.47;;;;;;;;;;5069774;28;20208;-73
2023/04/14 11:16:44;;;;;;;5.10;1.93;;;;;;;;;;5068773;28;20296;-75
2023/04/14 11:19:30;;;;;;;2.47;1.90;;;;;;;;;;5071154;28;20663;-75
2023/04/14 11:21:58;;;;;;;4.40;1.80;;;;;;;;;;5069570;28;20327;-75
2023/04/14 11:24:25;;;;;;;7.03;2.60;;;;;;;;;;5069670;28;20255;-73
2023/04/14 11:26:54;;;;;;;5.37;2.40;;;;;;;;;;5070248;28;20684;-74
2023/04/14 11:29:22;;;;;;;5.53;2.30;;;;;;;;;;5070587;28;20218;-76
2023/04/14 11:32:05;;;;;;;6.00;1.77;;;;;;;;;;5069782;28;20651;-74
2023/04/14 11:34:34;;;;;;;2.67;1.53;;;;;;;;;;5070963;28;20518;-73
2023/04/14 11:37:02;;;;;;;3.17;1.60;;;;;;;;;;5068235;28;20642;-75
2023/04/14 11:39:30;;;;;;;3.30;1.63;;;;;;;;;;5068752;28;20259;-75
2023/04/14 11:41:59;;;;;;;2.63;1.30;;;;;;;;;;5068941;28;20658;-75
2023/04/14 11:44:27;;;;;;;1.83;1.40;;;;;;;;;;5067850;28;20266;-75
2023/04/14 11:46:54;;;;;;;4.50;1.57;;;;;;;;;;5068855;28;20245;-74
2023/04/14 11:49:32;;;;;;;4.77;1.10;;;;;;;;;;5067361;28;20260;-74
2023/04/14 11:52:04;;;;;;;1.93;1.40;;;;;;;;;;5068887;28;20267;-74
2023/04/14 11:54:38;;;;;;;2.73;1.37;;;;;;;;;;5068793;28;20255;-75
2023/04/14 11:57:09;;;;;;;1.70;1.20;;;;;;;;;;5068844;28;20216;-75
2023/04/14 11:59:41;;;;;;;4.17;1.57;;;;;;;;;;5068717;28;20213;-76
2023/04/14 12:02:14;;;;;;;3.27;1.40;;;;;;;;;;5067758;28;20209;-75
2023/04/14 12:04:41;;;;;;;2.97;1.33;;;;;;;;;;5068840;28;20573;-75
2023/04/14 12:07:13;;;;;;;3.70;2.23;;;;;;;;;;5068256;28;20702;-75
2023/04/14 12:09:44;;;;;;;11.60;5.67;;;;;;;;;;5067773;28;20205;-75
2023/04/14 12:12:13;;;;;;;2.80;1.50;;;;;;;;;;5069472;28;20227;-75
2023/04/14 12:14:47;;;;;;;2.17;1.70;;;;;;;;;;5069443;28;20443;-75
2023/04/14 12:17:16;;;;;;;2.50;1.33;;;;;;;;;;5068466;28;20465;-75
2023/04/14 12:19:44;;;;;;;2.10;1.30;;;;;;;;;;5068293;28;20219;-75
2023/04/14 12:22:11;;;;;;;2.60;1.40;;;;;;;;;;5067254;28;20434;-75
2023/04/14 12:24:43;;;;;;;4.70;1.43;;;;;;;;;;5068368;28;20584;-76
2023/04/14 12:27:11;;;;;;;3.67;1.43;;;;;;;;;;5072312;28;20304;-74
2023/04/14 12:29:38;;;;;;;3.13;1.70;;;;;;;;;;5073263;28;20202;-75
2023/04/14 12:32:12;;;;;;;2.40;1.40;;;;;;;;;;5073296;28;20225;-72
2023/04/14 12:34:40;;;;;;;2.90;1.40;;;;;;;;;;5071475;28;20251;-75
2023/04/14 12:37:08;;;;;;;2.40;1.40;;;;;;;;;;5072237;28;20632;-73
2023/04/14 12:39:57;;;;;;;2.77;1.50;;;;;;;;;;5073007;28;20551;-75
2023/04/14 12:42:25;;;;;;;1.37;1.27;;;;;;;;;;5072608;28;20209;-73
2023/04/14 12:44:55;;;;;;;5.50;1.73;;;;;;;;;;5072820;28;20235;-75
2023/04/14 12:47:29;;;;;;;9.10;5.07;;;;;;;;;;5072957;28;21216;-75
2023/04/14 12:49:59;;;;;;;1.30;1.20;;;;;;;;;;5071838;28;20288;-75
2023/04/14 12:52:36;;;;;;;1.30;1.17;;;;;;;;;;5071953;28;20201;-75
2023/04/14 12:55:18;;;;;;;3.80;1.40;;;;;;;;;;5072146;28;20219;-75
2023/04/14 12:57:46;;;;;;;3.60;1.50;;;;;;;;;;5071544;28;20225;-74
2023/04/14 13:00:14;;;;;;;3.70;1.40;;;;;;;;;;5071725;28;20237;-74
2023/04/14 13:02:41;;;;;;;2.30;1.47;;;;;;;;;;5072507;28;20403;-73
2023/04/14 13:05:12;;;;;;;4.57;1.37;;;;;;;;;;5067700;28;20217;-74
2023/04/14 13:07:39;;;;;;;1.77;1.37;;;;;;;;;;5052055;28;20261;-75
2023/04/14 13:10:06;;;;;;;2.00;1.50;;;;;;;;;;5068577;28;20210;-72
2023/04/14 13:12:34;;;;;;;3.47;2.17;;;;;;;;;;5064488;28;20276;-75
2023/04/14 13:15:01;;;;;;;11.73;7.90;;;;;;;;;;5050979;28;20209;-74
2023/04/14 13:17:29;;;;;;;4.00;1.50;;;;;;;;;;5051653;28;20769;-74
2023/04/14 13:19:56;;;;;;;3.10;1.60;;;;;;;;;;5067752;28;20632;-75
2023/04/14 13:22:24;;;;;;;2.73;1.63;;;;;;;;;;5071951;28;20558;-74
2023/04/14 13:24:51;;;;;;;7.43;3.27;;;;;;;;;;5072049;28;20206;-75
2023/04/14 13:27:19;;;;;;;3.73;1.93;;;;;;;;;;5071567;28;20204;-75
2023/04/14 13:29:46;;;;;;;6.00;3.37;;;;;;;;;;5069833;28;20201;-74
2023/04/14 13:32:14;;;;;;;5.17;1.87;;;;;;;;;;5071944;28;20236;-74
2023/04/14 13:34:42;;;;;;;1.33;1.23;;;;;;;;;;5070522;28;20626;-75
2023/04/14 13:37:09;;;;;;;2.63;1.40;;;;;;;;;;5070022;28;20768;-73
2023/04/14 13:39:36;;;;;;;2.73;1.40;;;;;;;;;;5070014;28;20220;-74
2023/04/14 13:42:04;;;;;;;2.27;1.30;;;;;;;;;;5071217;28;20205;-74
2023/04/14 13:44:34;;;;;;;2.30;1.17;;;;;;;;;;5071153;28;20296;-72
2023/04/14 13:47:01;;;;;;;3.20;1.37;;;;;;;;;;5071710;28;20205;-74
2023/04/14 13:49:30;;;;;;;2.10;1.23;;;;;;;;;;5071969;28;20667;-74
2023/04/14 13:51:57;;;;;;;3.23;1.50;;;;;;;;;;5071946;28;20209;-74
2023/04/14 13:54:25;;;;;;;2.53;1.27;;;;;;;;;;5071182;28;20247;-73
2023/04/14 13:56:52;;;;;;;1.50;1.30;;;;;;;;;;5066447;28;20322;-75
2023/04/14 13:59:22;;;;;;;3.70;1.33;;;;;;;;;;5071837;28;20231;-73
2023/04/14 14:01:50;;;;;;;3.93;2.80;;;;;;;;;;5072022;28;20205;-74
2023/04/14 14:04:17;;;;;;;6.57;2.20;;;;;;;;;;5071646;28;20202;-74
2023/04/14 14:06:46;;;;;;;3.07;1.60;;;;;;;;;;5070147;28;20194;-74
2023/04/14 14:09:14;;;;;;;2.03;1.40;;;;;;;;;;5071229;28;20710;-74
2023/04/14 14:11:43;;;;;;;1.73;1.20;;;;;;;;;;5071420;28;20240;-74
2023/04/14 14:14:11;;;;;;;3.73;1.40;;;;;;;;;;5070497;28;20292;-74
2023/04/14 14:16:38;;;;;;;3.07;1.37;;;;;;;;;;5070890;28;20194;-74
2023/04/14 14:19:08;;;;;;;1.80;1.20;;;;;;;;;;5070285;28;20232;-75
2023/04/14 14:21:36;;;;;;;1.58;1.20;;;;;;;;;;5070511;28;20241;-74
2023/04/14 14:24:03;;;;;;;4.97;1.20;;;;;;;;;;5069073;28;20671;-74
2023/04/14 14:26:31;;;;;;;2.67;1.50;;;;;;;;;;5069250;28;20288;-74
2023/04/14 14:28:58;;;;;;;4.60;2.90;;;;;;;;;;5070347;28;20232;-72
2023/04/14 14:31:25;;;;;;;3.05;1.17;;;;;;;;;;5070342;28;20200;-74
2023/04/14 14:33:53;;;;;;;2.27;1.20;;;;;;;;;;5069940;28;20220;-75
2023/04/14 14:36:20;;;;;;;1.88;1.30;;;;;;;;;;5069804;28;20224;-74
2023/04/14 14:38:48;;;;;;;3.30;1.47;;;;;;;;;;5069120;28;20272;-74
2023/04/14 14:41:15;;;;;;;3.33;1.17;;;;;;;;;;5068341;28;20205;-74
2023/04/14 14:43:42;;;;;;;2.37;1.13;;;;;;;;;;5068966;28;20236;-74
2023/04/14 14:46:10;;;;;;;4.13;1.40;;;;;;;;;;5063929;28;20214;-75
2023/04/14 14:48:37;;;;;;;4.20;1.87;;;;;;;;;;5071756;28;20247;-74
2023/04/14 14:51:07;;;;;;;2.90;1.40;;;;;;;;;;5078899;28;20225;-74
2023/04/14 14:53:35;;;;;;;2.93;1.37;;;;;;;;;;5071046;28;20204;-73